sensor_id;sensor_type;location;lat;lon;timestamp;P1;durP1;ratioP1;P2;durP2;ratioP2
63203;SDS011;49297;43.210;27.914;2023-04-21T00:00:43;21.35;;;14.57;;
63203;SDS011;49297;43.210;27.914;2023-04-21T00:03:09;18.67;;;12.15;;
63203;SDS011;49297;43.210;27.914;2023-04-21T00:05:34;17.15;;;10.57;;
63203;SDS011;49297;43.210;27.914;2023-04-21T00:08:00;17.00;;;9.93;;
63203;SDS011;49297;43.210;27.914;2023-04-21T00:10:26;15.95;;;10.93;;
63203;SDS011;49297;43.210;27.914;2023-04-21T00:12:52;21.07;;;8.73;;
63203;SDS011;49297;43.210;27.914;2023-04-21T00:15:17;15.73;;;9.23;;
63203;SDS011;49297;43.210;27.914;2023-04-21T00:17:43;16.93;;;8.67;;
63203;SDS011;49297;43.210;27.914;2023-04-21T00:20:09;16.10;;;8.38;;
63203;SDS011;49297;43.210;27.914;2023-04-21T00:22:35;19.48;;;8.38;;
63203;SDS011;49297;43.210;27.914;2023-04-21T00:25:01;16.48;;;8.48;;
63203;SDS011;49297;43.210;27.914;2023-04-21T00:27:27;16.85;;;8.05;;
63203;SDS011;49297;43.210;27.914;2023-04-21T00:29:53;15.17;;;8.20;;
63203;SDS011;49297;43.210;27.914;2023-04-21T00:32:18;21.17;;;8.17;;
63203;SDS011;49297;43.210;27.914;2023-04-21T00:34:44;14.60;;;7.82;;
63203;SDS011;49297;43.210;27.914;2023-04-21T00:37:10;14.55;;;8.05;;
63203;SDS011;49297;43.210;27.914;2023-04-21T00:39:35;17.30;;;9.15;;
63203;SDS011;49297;43.210;27.914;2023-04-21T00:42:01;16.60;;;8.67;;
63203;SDS011;49297;43.210;27.914;2023-04-21T00:44:26;18.83;;;8.30;;
63203;SDS011;49297;43.210;27.914;2023-04-21T00:46:52;25.57;;;10.50;;
63203;SDS011;49297;43.210;27.914;2023-04-21T00:49:18;19.67;;;10.93;;
63203;SDS011;49297;43.210;27.914;2023-04-21T00:51:44;16.47;;;10.40;;
63203;SDS011;49297;43.210;27.914;2023-04-21T00:54:10;20.50;;;10.60;;
63203;SDS011;49297;43.210;27.914;2023-04-21T00:56:38;16.07;;;10.23;;
63203;SDS011;49297;43.210;27.914;2023-04-21T00:59:04;13.40;;;9.40;;
63203;SDS011;49297;43.210;27.914;2023-04-21T01:01:30;23.27;;;10.33;;
63203;SDS011;49297;43.210;27.914;2023-04-21T01:03:59;17.48;;;11.00;;
63203;SDS011;49297;43.210;27.914;2023-04-21T01:06:29;20.30;;;11.63;;
63203;SDS011;49297;43.210;27.914;2023-04-21T01:08:58;20.67;;;11.60;;
63203;SDS011;49297;43.210;27.914;2023-04-21T01:11:24;16.50;;;11.13;;
63203;SDS011;49297;43.210;27.914;2023-04-21T01:13:53;20.70;;;12.38;;
63203;SDS011;49297;43.210;27.914;2023-04-21T01:16:19;23.48;;;11.93;;
63203;SDS011;49297;43.210;27.914;2023-04-21T01:18:47;15.82;;;12.00;;
63203;SDS011;49297;43.210;27.914;2023-04-21T01:21:13;20.38;;;11.40;;
63203;SDS011;49297;43.210;27.914;2023-04-21T01:23:40;20.10;;;11.10;;
63203;SDS011;49297;43.210;27.914;2023-04-21T01:26:06;17.53;;;11.27;;
63203;SDS011;49297;43.210;27.914;2023-04-21T01:28:32;17.50;;;10.80;;
63203;SDS011;49297;43.210;27.914;2023-04-21T01:30:57;22.15;;;12.75;;
63203;SDS011;49297;43.210;27.914;2023-04-21T01:33:23;19.73;;;13.02;;
63203;SDS011;49297;43.210;27.914;2023-04-21T01:35:49;18.73;;;12.73;;
63203;SDS011;49297;43.210;27.914;2023-04-21T01:38:15;20.70;;;13.10;;
63203;SDS011;49297;43.210;27.914;2023-04-21T01:40:45;20.95;;;13.70;;
63203;SDS011;49297;43.210;27.914;2023-04-21T01:43:13;19.60;;;13.40;;
63203;SDS011;49297;43.210;27.914;2023-04-21T01:45:40;20.50;;;12.77;;
63203;SDS011;49297;43.210;27.914;2023-04-21T01:48:06;14.98;;;10.45;;
63203;SDS011;49297;43.210;27.914;2023-04-21T01:50:32;15.85;;;9.43;;
63203;SDS011;49297;43.210;27.914;2023-04-21T01:52:58;15.20;;;9.45;;
63203;SDS011;49297;43.210;27.914;2023-04-21T01:55:23;22.50;;;9.70;;
63203;SDS011;49297;43.210;27.914;2023-04-21T01:57:49;18.13;;;10.27;;
63203;SDS011;49297;43.210;27.914;2023-04-21T02:00:15;22.57;;;12.03;;
63203;SDS011;49297;43.210;27.914;2023-04-21T02:02:41;19.52;;;12.75;;
63203;SDS011;49297;43.210;27.914;2023-04-21T02:05:07;13.83;;;11.70;;
63203;SDS011;49297;43.210;27.914;2023-04-21T02:07:32;28.57;;;11.93;;
63203;SDS011;49297;43.210;27.914;2023-04-21T02:09:58;14.80;;;10.77;;
63203;SDS011;49297;43.210;27.914;2023-04-21T02:12:24;18.85;;;10.75;;
63203;SDS011;49297;43.210;27.914;2023-04-21T02:14:50;17.95;;;9.25;;
63203;SDS011;49297;43.210;27.914;2023-04-21T02:17:15;15.93;;;7.68;;
63203;SDS011;49297;43.210;27.914;2023-04-21T02:19:42;14.30;;;8.20;;
63203;SDS011;49297;43.210;27.914;2023-04-21T02:22:07;17.87;;;8.87;;
63203;SDS011;49297;43.210;27.914;2023-04-21T02:24:37;18.58;;;8.18;;
63203;SDS011;49297;43.210;27.914;2023-04-21T02:27:03;15.52;;;8.52;;
63203;SDS011;49297;43.210;27.914;2023-04-21T02:29:28;19.33;;;8.43;;
63203;SDS011;49297;43.210;27.914;2023-04-21T02:31:54;17.88;;;9.05;;
63203;SDS011;49297;43.210;27.914;2023-04-21T02:34:20;14.73;;;9.05;;
63203;SDS011;49297;43.210;27.914;2023-04-21T02:36:46;14.30;;;8.77;;
63203;SDS011;49297;43.210;27.914;2023-04-21T02:39:12;19.88;;;9.05;;
63203;SDS011;49297;43.210;27.914;2023-04-21T02:41:40;11.02;;;9.35;;
63203;SDS011;49297;43.210;27.914;2023-04-21T02:44:06;12.87;;;9.07;;
63203;SDS011;49297;43.210;27.914;2023-04-21T02:46:32;17.00;;;9.03;;
63203;SDS011;49297;43.210;27.914;2023-04-21T02:48:57;15.63;;;8.45;;
63203;SDS011;49297;43.210;27.914;2023-04-21T02:51:23;16.13;;;8.27;;
63203;SDS011;49297;43.210;27.914;2023-04-21T02:53:50;18.15;;;8.10;;
63203;SDS011;49297;43.210;27.914;2023-04-21T02:56:15;17.63;;;7.97;;
63203;SDS011;49297;43.210;27.914;2023-04-21T02:58:41;16.67;;;7.57;;
63203;SDS011;49297;43.210;27.914;2023-04-21T03:01:07;19.83;;;7.70;;
63203;SDS011;49297;43.210;27.914;2023-04-21T03:03:33;20.63;;;9.40;;
63203;SDS011;49297;43.210;27.914;2023-04-21T03:05:59;15.50;;;9.97;;
63203;SDS011;49297;43.210;27.914;2023-04-21T03:08:27;18.75;;;8.38;;
63203;SDS011;49297;43.210;27.914;2023-04-21T03:10:53;15.38;;;9.50;;
63203;SDS011;49297;43.210;27.914;2023-04-21T03:13:18;16.30;;;9.67;;
63203;SDS011;49297;43.210;27.914;2023-04-21T03:15:44;14.60;;;9.40;;
63203;SDS011;49297;43.210;27.914;2023-04-21T03:18:10;20.30;;;9.63;;
63203;SDS011;49297;43.210;27.914;2023-04-21T03:20:36;20.98;;;9.63;;
63203;SDS011;49297;43.210;27.914;2023-04-21T03:23:02;14.30;;;9.02;;
63203;SDS011;49297;43.210;27.914;2023-04-21T03:25:28;17.25;;;9.23;;
63203;SDS011;49297;43.210;27.914;2023-04-21T03:27:54;14.88;;;9.23;;
63203;SDS011;49297;43.210;27.914;2023-04-21T03:30:20;14.20;;;9.40;;
63203;SDS011;49297;43.210;27.914;2023-04-21T03:32:48;17.15;;;10.48;;
63203;SDS011;49297;43.210;27.914;2023-04-21T03:35:14;16.38;;;10.63;;
63203;SDS011;49297;43.210;27.914;2023-04-21T03:37:40;18.20;;;10.45;;
63203;SDS011;49297;43.210;27.914;2023-04-21T03:40:06;15.27;;;11.35;;
63203;SDS011;49297;43.210;27.914;2023-04-21T03:42:35;20.98;;;12.95;;
63203;SDS011;49297;43.210;27.914;2023-04-21T03:45:04;23.20;;;13.30;;
63203;SDS011;49297;43.210;27.914;2023-04-21T03:47:31;22.88;;;15.07;;
63203;SDS011;49297;43.210;27.914;2023-04-21T03:49:57;23.55;;;15.00;;
63203;SDS011;49297;43.210;27.914;2023-04-21T03:52:23;22.20;;;16.50;;
63203;SDS011;49297;43.210;27.914;2023-04-21T03:54:49;29.40;;;17.87;;
63203;SDS011;49297;43.210;27.914;2023-04-21T03:57:15;29.90;;;17.92;;
63203;SDS011;49297;43.210;27.914;2023-04-21T03:59:41;30.17;;;19.95;;
63203;SDS011;49297;43.210;27.914;2023-04-21T04:02:07;32.03;;;23.73;;
63203;SDS011;49297;43.210;27.914;2023-04-21T04:04:36;35.47;;;28.05;;
63203;SDS011;49297;43.210;27.914;2023-04-21T04:07:02;38.17;;;29.58;;
63203;SDS011;49297;43.210;27.914;2023-04-21T04:09:27;37.50;;;32.67;;
63203;SDS011;49297;43.210;27.914;2023-04-21T04:11:53;45.53;;;40.40;;
63203;SDS011;49297;43.210;27.914;2023-04-21T04:14:19;40.95;;;36.65;;
63203;SDS011;49297;43.210;27.914;2023-04-21T04:16:44;40.23;;;33.23;;
63203;SDS011;49297;43.210;27.914;2023-04-21T04:19:10;32.80;;;25.27;;
63203;SDS011;49297;43.210;27.914;2023-04-21T04:21:36;30.50;;;24.30;;
63203;SDS011;49297;43.210;27.914;2023-04-21T04:24:02;27.98;;;19.95;;
63203;SDS011;49297;43.210;27.914;2023-04-21T04:26:29;25.60;;;17.75;;
63203;SDS011;49297;43.210;27.914;2023-04-21T04:28:58;26.77;;;16.50;;
63203;SDS011;49297;43.210;27.914;2023-04-21T04:31:28;23.05;;;16.65;;
63203;SDS011;49297;43.210;27.914;2023-04-21T04:33:54;23.60;;;16.40;;
63203;SDS011;49297;43.210;27.914;2023-04-21T04:36:21;28.65;;;15.23;;
63203;SDS011;49297;43.210;27.914;2023-04-21T04:38:48;17.00;;;13.05;;
63203;SDS011;49297;43.210;27.914;2023-04-21T04:41:14;19.55;;;12.10;;
63203;SDS011;49297;43.210;27.914;2023-04-21T04:43:41;19.77;;;12.73;;
63203;SDS011;49297;43.210;27.914;2023-04-21T04:46:07;27.38;;;13.23;;
63203;SDS011;49297;43.210;27.914;2023-04-21T04:48:37;29.95;;;13.73;;
63203;SDS011;49297;43.210;27.914;2023-04-21T04:51:03;30.35;;;13.40;;
63203;SDS011;49297;43.210;27.914;2023-04-21T04:53:29;24.02;;;14.00;;
63203;SDS011;49297;43.210;27.914;2023-04-21T04:55:55;31.83;;;13.50;;
63203;SDS011;49297;43.210;27.914;2023-04-21T04:58:22;30.20;;;13.10;;
63203;SDS011;49297;43.210;27.914;2023-04-21T05:00:49;26.48;;;11.93;;
63203;SDS011;49297;43.210;27.914;2023-04-21T05:03:15;25.35;;;13.40;;
63203;SDS011;49297;43.210;27.914;2023-04-21T05:05:41;19.27;;;12.40;;
63203;SDS011;49297;43.210;27.914;2023-04-21T05:08:07;26.77;;;11.60;;
63203;SDS011;49297;43.210;27.914;2023-04-21T05:10:33;17.35;;;11.77;;
63203;SDS011;49297;43.210;27.914;2023-04-21T05:12:59;22.17;;;12.95;;
63203;SDS011;49297;43.210;27.914;2023-04-21T05:15:25;27.33;;;14.47;;
63203;SDS011;49297;43.210;27.914;2023-04-21T05:17:50;23.23;;;16.50;;
63203;SDS011;49297;43.210;27.914;2023-04-21T05:20:16;32.53;;;18.57;;
63203;SDS011;49297;43.210;27.914;2023-04-21T05:22:42;20.60;;;16.80;;
63203;SDS011;49297;43.210;27.914;2023-04-21T05:25:09;25.58;;;18.35;;
63203;SDS011;49297;43.210;27.914;2023-04-21T05:27:40;30.67;;;19.92;;
63203;SDS011;49297;43.210;27.914;2023-04-21T05:30:06;31.77;;;20.90;;
63203;SDS011;49297;43.210;27.914;2023-04-21T05:32:33;22.50;;;19.00;;
63203;SDS011;49297;43.210;27.914;2023-04-21T05:34:58;31.87;;;22.00;;
63203;SDS011;49297;43.210;27.914;2023-04-21T05:37:25;30.00;;;20.63;;
63203;SDS011;49297;43.210;27.914;2023-04-21T05:39:51;27.50;;;21.48;;
63203;SDS011;49297;43.210;27.914;2023-04-21T05:42:17;31.08;;;20.17;;
63203;SDS011;49297;43.210;27.914;2023-04-21T05:44:42;29.80;;;19.57;;
63203;SDS011;49297;43.210;27.914;2023-04-21T05:47:08;37.05;;;20.85;;
63203;SDS011;49297;43.210;27.914;2023-04-21T05:49:34;26.52;;;19.88;;
63203;SDS011;49297;43.210;27.914;2023-04-21T05:52:00;31.65;;;18.17;;
63203;SDS011;49297;43.210;27.914;2023-04-21T05:54:26;29.15;;;19.83;;
63203;SDS011;49297;43.210;27.914;2023-04-21T05:56:51;37.05;;;22.60;;
63203;SDS011;49297;43.210;27.914;2023-04-21T05:59:17;31.23;;;23.17;;
63203;SDS011;49297;43.210;27.914;2023-04-21T06:01:43;32.80;;;22.67;;
63203;SDS011;49297;43.210;27.914;2023-04-21T06:04:08;30.73;;;24.30;;
63203;SDS011;49297;43.210;27.914;2023-04-21T06:06:34;29.23;;;23.63;;
63203;SDS011;49297;43.210;27.914;2023-04-21T06:09:00;31.95;;;22.73;;
63203;SDS011;49297;43.210;27.914;2023-04-21T06:11:25;39.83;;;24.50;;
63203;SDS011;49297;43.210;27.914;2023-04-21T06:13:51;23.70;;;21.00;;
63203;SDS011;49297;43.210;27.914;2023-04-21T06:16:18;32.15;;;22.35;;
63203;SDS011;49297;43.210;27.914;2023-04-21T06:18:45;33.28;;;19.52;;
63203;SDS011;49297;43.210;27.914;2023-04-21T06:21:11;31.55;;;18.25;;
63203;SDS011;49297;43.210;27.914;2023-04-21T06:23:36;23.33;;;14.25;;
63203;SDS011;49297;43.210;27.914;2023-04-21T06:26:03;33.45;;;10.98;;
63203;SDS011;49297;43.210;27.914;2023-04-21T06:28:31;18.35;;;6.63;;
63203;SDS011;49297;43.210;27.914;2023-04-21T06:30:58;10.30;;;4.47;;
63203;SDS011;49297;43.210;27.914;2023-04-21T06:33:25;7.65;;;4.20;;
63203;SDS011;49297;43.210;27.914;2023-04-21T06:35:52;8.27;;;3.93;;
63203;SDS011;49297;43.210;27.914;2023-04-21T06:38:18;8.15;;;3.17;;
63203;SDS011;49297;43.210;27.914;2023-04-21T06:40:44;5.97;;;3.20;;
63203;SDS011;49297;43.210;27.914;2023-04-21T06:43:10;9.77;;;4.03;;
63203;SDS011;49297;43.210;27.914;2023-04-21T06:45:36;6.53;;;3.60;;
63203;SDS011;49297;43.210;27.914;2023-04-21T06:48:02;15.30;;;3.37;;
63203;SDS011;49297;43.210;27.914;2023-04-21T06:50:28;16.85;;;4.82;;
63203;SDS011;49297;43.210;27.914;2023-04-21T06:52:53;8.03;;;3.03;;
63203;SDS011;49297;43.210;27.914;2023-04-21T06:55:19;21.07;;;4.87;;
63203;SDS011;49297;43.210;27.914;2023-04-21T06:57:45;24.95;;;4.70;;
63203;SDS011;49297;43.210;27.914;2023-04-21T07:00:11;6.93;;;3.53;;
63203;SDS011;49297;43.210;27.914;2023-04-21T07:02:38;5.40;;;3.17;;
63203;SDS011;49297;43.210;27.914;2023-04-21T07:05:03;10.38;;;4.43;;
63203;SDS011;49297;43.210;27.914;2023-04-21T07:07:29;12.35;;;4.63;;
63203;SDS011;49297;43.210;27.914;2023-04-21T07:09:55;9.37;;;3.50;;
63203;SDS011;49297;43.210;27.914;2023-04-21T07:12:22;11.63;;;3.67;;
63203;SDS011;49297;43.210;27.914;2023-04-21T07:14:48;8.50;;;3.97;;
63203;SDS011;49297;43.210;27.914;2023-04-21T07:17:14;13.27;;;6.23;;
63203;SDS011;49297;43.210;27.914;2023-04-21T07:19:40;6.63;;;3.77;;
63203;SDS011;49297;43.210;27.914;2023-04-21T07:22:06;6.60;;;2.87;;
63203;SDS011;49297;43.210;27.914;2023-04-21T07:24:31;10.30;;;3.73;;
63203;SDS011;49297;43.210;27.914;2023-04-21T07:26:59;7.47;;;3.63;;
63203;SDS011;49297;43.210;27.914;2023-04-21T07:29:27;9.57;;;3.27;;
63203;SDS011;49297;43.210;27.914;2023-04-21T07:31:53;6.30;;;3.25;;
63203;SDS011;49297;43.210;27.914;2023-04-21T07:34:19;13.90;;;4.07;;
63203;SDS011;49297;43.210;27.914;2023-04-21T07:36:45;10.60;;;3.60;;
63203;SDS011;49297;43.210;27.914;2023-04-21T07:39:11;17.07;;;4.60;;
63203;SDS011;49297;43.210;27.914;2023-04-21T07:41:37;12.40;;;4.35;;
63203;SDS011;49297;43.210;27.914;2023-04-21T07:44:03;8.25;;;4.85;;
63203;SDS011;49297;43.210;27.914;2023-04-21T07:46:29;9.30;;;4.25;;
63203;SDS011;49297;43.210;27.914;2023-04-21T07:48:56;11.95;;;4.53;;
63203;SDS011;49297;43.210;27.914;2023-04-21T07:51:23;10.27;;;4.82;;
63203;SDS011;49297;43.210;27.914;2023-04-21T07:53:50;12.10;;;4.50;;
63203;SDS011;49297;43.210;27.914;2023-04-21T07:56:16;22.10;;;5.73;;
63203;SDS011;49297;43.210;27.914;2023-04-21T07:58:42;7.47;;;3.97;;
63203;SDS011;49297;43.210;27.914;2023-04-21T08:01:08;13.77;;;5.60;;
63203;SDS011;49297;43.210;27.914;2023-04-21T08:03:34;13.82;;;5.03;;
63203;SDS011;49297;43.210;27.914;2023-04-21T08:06:00;13.63;;;5.72;;
63203;SDS011;49297;43.210;27.914;2023-04-21T08:08:26;11.60;;;5.55;;
63203;SDS011;49297;43.210;27.914;2023-04-21T08:10:52;10.53;;;4.77;;
63203;SDS011;49297;43.210;27.914;2023-04-21T08:13:18;10.60;;;4.97;;
63203;SDS011;49297;43.210;27.914;2023-04-21T08:15:49;15.07;;;5.10;;
63203;SDS011;49297;43.210;27.914;2023-04-21T08:18:16;13.18;;;5.00;;
63203;SDS011;49297;43.210;27.914;2023-04-21T08:20:43;10.85;;;4.47;;
63203;SDS011;49297;43.210;27.914;2023-04-21T08:23:15;11.80;;;4.28;;
63203;SDS011;49297;43.210;27.914;2023-04-21T08:25:40;11.93;;;5.00;;
63203;SDS011;49297;43.210;27.914;2023-04-21T08:28:06;9.17;;;4.30;;
63203;SDS011;49297;43.210;27.914;2023-04-21T08:30:32;12.20;;;4.13;;
63203;SDS011;49297;43.210;27.914;2023-04-21T08:32:58;14.20;;;4.57;;
63203;SDS011;49297;43.210;27.914;2023-04-21T08:35:24;8.37;;;4.33;;
63203;SDS011;49297;43.210;27.914;2023-04-21T08:37:50;12.93;;;4.00;;
63203;SDS011;49297;43.210;27.914;2023-04-21T08:40:16;12.82;;;4.45;;
63203;SDS011;49297;43.210;27.914;2023-04-21T08:42:43;10.38;;;4.85;;
63203;SDS011;49297;43.210;27.914;2023-04-21T08:45:10;14.93;;;5.22;;
63203;SDS011;49297;43.210;27.914;2023-04-21T08:47:39;13.35;;;5.07;;
63203;SDS011;49297;43.210;27.914;2023-04-21T08:50:06;12.07;;;5.25;;
63203;SDS011;49297;43.210;27.914;2023-04-21T08:52:37;18.13;;;5.30;;
63203;SDS011;49297;43.210;27.914;2023-04-21T08:55:03;14.40;;;5.60;;
63203;SDS011;49297;43.210;27.914;2023-04-21T08:57:31;16.02;;;6.80;;
63203;SDS011;49297;43.210;27.914;2023-04-21T08:59:57;8.10;;;5.65;;
63203;SDS011;49297;43.210;27.914;2023-04-21T09:02:23;16.55;;;7.05;;
63203;SDS011;49297;43.210;27.914;2023-04-21T09:04:50;15.13;;;5.60;;
63203;SDS011;49297;43.210;27.914;2023-04-21T09:07:35;16.52;;;6.07;;
63203;SDS011;49297;43.210;27.914;2023-04-21T09:10:03;13.20;;;5.13;;
63203;SDS011;49297;43.210;27.914;2023-04-21T09:12:29;10.63;;;5.63;;
63203;SDS011;49297;43.210;27.914;2023-04-21T09:14:56;14.82;;;4.90;;
63203;SDS011;49297;43.210;27.914;2023-04-21T09:17:28;15.13;;;5.07;;
63203;SDS011;49297;43.210;27.914;2023-04-21T09:20:17;14.35;;;5.55;;
63203;SDS011;49297;43.210;27.914;2023-04-21T09:22:46;9.47;;;5.43;;
63203;SDS011;49297;43.210;27.914;2023-04-21T09:25:22;11.15;;;5.43;;
63203;SDS011;49297;43.210;27.914;2023-04-21T09:27:48;12.00;;;5.15;;
63203;SDS011;49297;43.210;27.914;2023-04-21T09:30:17;12.57;;;5.53;;
63203;SDS011;49297;43.210;27.914;2023-04-21T09:32:45;12.38;;;5.43;;
63203;SDS011;49297;43.210;27.914;2023-04-21T09:35:11;13.52;;;5.53;;
63203;SDS011;49297;43.210;27.914;2023-04-21T09:37:37;17.55;;;6.03;;
63203;SDS011;49297;43.210;27.914;2023-04-21T09:40:04;11.38;;;4.88;;
63203;SDS011;49297;43.210;27.914;2023-04-21T09:42:31;19.27;;;5.25;;
63203;SDS011;49297;43.210;27.914;2023-04-21T09:44:57;11.63;;;5.90;;
63203;SDS011;49297;43.210;27.914;2023-04-21T09:47:23;13.60;;;6.28;;
63203;SDS011;49297;43.210;27.914;2023-04-21T09:49:53;23.45;;;9.57;;
63203;SDS011;49297;43.210;27.914;2023-04-21T09:52:20;19.08;;;7.03;;
63203;SDS011;49297;43.210;27.914;2023-04-21T09:54:50;22.00;;;6.80;;
63203;SDS011;49297;43.210;27.914;2023-04-21T09:57:21;16.27;;;6.97;;
63203;SDS011;49297;43.210;27.914;2023-04-21T09:59:53;13.35;;;5.60;;
63203;SDS011;49297;43.210;27.914;2023-04-21T10:02:24;11.80;;;6.20;;
63203;SDS011;49297;43.210;27.914;2023-04-21T10:04:54;8.33;;;4.77;;
63203;SDS011;49297;43.210;27.914;2023-04-21T10:07:20;25.60;;;7.07;;
63203;SDS011;49297;43.210;27.914;2023-04-21T10:09:55;22.37;;;5.87;;
63203;SDS011;49297;43.210;27.914;2023-04-21T10:12:24;11.40;;;4.93;;
63203;SDS011;49297;43.210;27.914;2023-04-21T10:14:52;15.32;;;6.35;;
63203;SDS011;49297;43.210;27.914;2023-04-21T10:17:21;10.20;;;4.60;;
63203;SDS011;49297;43.210;27.914;2023-04-21T10:19:54;8.80;;;5.10;;
63203;SDS011;49297;43.210;27.914;2023-04-21T10:22:25;16.00;;;5.20;;
63203;SDS011;49297;43.210;27.914;2023-04-21T10:24:56;8.70;;;4.72;;
63203;SDS011;49297;43.210;27.914;2023-04-21T10:27:31;21.05;;;5.68;;
63203;SDS011;49297;43.210;27.914;2023-04-21T10:29:59;9.65;;;4.55;;
63203;SDS011;49297;43.210;27.914;2023-04-21T10:38:32;9.53;;;4.43;;
63203;SDS011;49297;43.210;27.914;2023-04-21T10:41:33;23.42;;;5.00;;
63203;SDS011;49297;43.210;27.914;2023-04-21T10:43:53;15.02;;;4.68;;
63203;SDS011;49297;43.210;27.914;2023-04-21T10:46:32;7.40;;;4.07;;
63203;SDS011;49297;43.210;27.914;2023-04-21T10:57:09;20.05;;;5.68;;
63203;SDS011;49297;43.210;27.914;2023-04-21T10:59:36;23.80;;;7.90;;
63203;SDS011;49297;43.210;27.914;2023-04-21T11:02:12;9.13;;;4.53;;
63203;SDS011;49297;43.210;27.914;2023-04-21T11:04:40;10.20;;;4.00;;
63203;SDS011;49297;43.210;27.914;2023-04-21T11:07:15;9.93;;;3.75;;
63203;SDS011;49297;43.210;27.914;2023-04-21T11:09:44;11.10;;;4.13;;
63203;SDS011;49297;43.210;27.914;2023-04-21T11:12:13;9.70;;;4.95;;
63203;SDS011;49297;43.210;27.914;2023-04-21T11:14:40;21.85;;;4.75;;
63203;SDS011;49297;43.210;27.914;2023-04-21T11:19:38;9.85;;;4.30;;
63203;SDS011;49297;43.210;27.914;2023-04-21T11:22:04;8.50;;;4.00;;
63203;SDS011;49297;43.210;27.914;2023-04-21T11:24:30;6.20;;;3.15;;
63203;SDS011;49297;43.210;27.914;2023-04-21T11:26:56;13.00;;;3.88;;
63203;SDS011;49297;43.210;27.914;2023-04-21T11:29:25;9.35;;;4.15;;
63203;SDS011;49297;43.210;27.914;2023-04-21T11:31:50;14.50;;;4.63;;
63203;SDS011;49297;43.210;27.914;2023-04-21T11:54:11;19.17;;;4.75;;
63203;SDS011;49297;43.210;27.914;2023-04-21T11:56:41;8.70;;;4.25;;
63203;SDS011;49297;43.210;27.914;2023-04-21T11:59:09;15.38;;;3.55;;
63203;SDS011;49297;43.210;27.914;2023-04-21T12:01:46;16.67;;;4.73;;
63203;SDS011;49297;43.210;27.914;2023-04-21T12:04:12;13.80;;;3.63;;
63203;SDS011;49297;43.210;27.914;2023-04-21T12:06:40;8.05;;;3.05;;
63203;SDS011;49297;43.210;27.914;2023-04-21T12:09:06;12.73;;;4.23;;
63203;SDS011;49297;43.210;27.914;2023-04-21T12:11:32;9.45;;;2.97;;
63203;SDS011;49297;43.210;27.914;2023-04-21T12:13:59;12.27;;;3.03;;
63203;SDS011;49297;43.210;27.914;2023-04-21T12:16:28;10.50;;;3.60;;
63203;SDS011;49297;43.210;27.914;2023-04-21T12:18:55;8.82;;;3.30;;
63203;SDS011;49297;43.210;27.914;2023-04-21T12:21:25;9.88;;;3.50;;
63203;SDS011;49297;43.210;27.914;2023-04-21T12:23:52;9.30;;;3.17;;
63203;SDS011;49297;43.210;27.914;2023-04-21T12:26:18;17.57;;;2.90;;
63203;SDS011;49297;43.210;27.914;2023-04-21T12:28:44;6.85;;;3.05;;
63203;SDS011;49297;43.210;27.914;2023-04-21T12:31:09;56.17;;;8.40;;
63203;SDS011;49297;43.210;27.914;2023-04-21T12:33:35;11.33;;;3.37;;
63203;SDS011;49297;43.210;27.914;2023-04-21T12:36:01;23.50;;;5.17;;
63203;SDS011;49297;43.210;27.914;2023-04-21T12:38:27;18.42;;;3.72;;
63203;SDS011;49297;43.210;27.914;2023-04-21T12:40:52;11.30;;;3.78;;
63203;SDS011;49297;43.210;27.914;2023-04-21T12:43:18;14.57;;;4.30;;
63203;SDS011;49297;43.210;27.914;2023-04-21T12:45:46;12.27;;;4.47;;
63203;SDS011;49297;43.210;27.914;2023-04-21T12:48:13;23.63;;;5.00;;
63203;SDS011;49297;43.210;27.914;2023-04-21T12:50:38;15.65;;;4.78;;
63203;SDS011;49297;43.210;27.914;2023-04-21T12:53:04;13.83;;;4.10;;
63203;SDS011;49297;43.210;27.914;2023-04-21T12:55:30;16.27;;;3.95;;
63203;SDS011;49297;43.210;27.914;2023-04-21T12:57:55;19.35;;;4.40;;
63203;SDS011;49297;43.210;27.914;2023-04-21T13:00:21;8.77;;;3.13;;
63203;SDS011;49297;43.210;27.914;2023-04-21T13:02:47;9.05;;;4.00;;
63203;SDS011;49297;43.210;27.914;2023-04-21T13:05:13;8.35;;;3.53;;
63203;SDS011;49297;43.210;27.914;2023-04-21T13:07:39;15.57;;;4.53;;
63203;SDS011;49297;43.210;27.914;2023-04-21T13:10:05;8.15;;;4.28;;
63203;SDS011;49297;43.210;27.914;2023-04-21T13:12:32;12.02;;;4.43;;
63203;SDS011;49297;43.210;27.914;2023-04-21T13:14:57;13.65;;;4.10;;
63203;SDS011;49297;43.210;27.914;2023-04-21T13:17:23;9.07;;;3.95;;
63203;SDS011;49297;43.210;27.914;2023-04-21T13:19:49;7.93;;;3.57;;
63203;SDS011;49297;43.210;27.914;2023-04-21T13:22:15;11.03;;;4.37;;
63203;SDS011;49297;43.210;27.914;2023-04-21T13:24:41;7.65;;;3.90;;
63203;SDS011;49297;43.210;27.914;2023-04-21T13:27:07;13.52;;;5.15;;
63203;SDS011;49297;43.210;27.914;2023-04-21T13:29:33;8.63;;;4.28;;
63203;SDS011;49297;43.210;27.914;2023-04-21T13:32:00;9.55;;;4.50;;
63203;SDS011;49297;43.210;27.914;2023-04-21T13:34:27;16.40;;;5.00;;
63203;SDS011;49297;43.210;27.914;2023-04-21T13:36:53;10.40;;;3.95;;
63203;SDS011;49297;43.210;27.914;2023-04-21T13:39:19;12.30;;;4.83;;
63203;SDS011;49297;43.210;27.914;2023-04-21T13:41:45;9.35;;;3.47;;
63203;SDS011;49297;43.210;27.914;2023-04-21T13:44:11;15.20;;;4.30;;
63203;SDS011;49297;43.210;27.914;2023-04-21T13:46:37;11.40;;;4.20;;
63203;SDS011;49297;43.210;27.914;2023-04-21T13:49:03;12.05;;;4.22;;
63203;SDS011;49297;43.210;27.914;2023-04-21T13:51:28;12.90;;;3.75;;
63203;SDS011;49297;43.210;27.914;2023-04-21T13:53:54;12.40;;;4.43;;
63203;SDS011;49297;43.210;27.914;2023-04-21T13:56:20;11.70;;;4.13;;
63203;SDS011;49297;43.210;27.914;2023-04-21T13:58:46;11.10;;;4.33;;
63203;SDS011;49297;43.210;27.914;2023-04-21T14:01:12;17.80;;;4.60;;
63203;SDS011;49297;43.210;27.914;2023-04-21T14:03:39;11.65;;;4.25;;
63203;SDS011;49297;43.210;27.914;2023-04-21T14:06:05;7.90;;;3.33;;
63203;SDS011;49297;43.210;27.914;2023-04-21T14:08:31;11.07;;;4.60;;
63203;SDS011;49297;43.210;27.914;2023-04-21T14:10:57;10.07;;;3.53;;
63203;SDS011;49297;43.210;27.914;2023-04-21T14:13:23;13.57;;;4.47;;
63203;SDS011;49297;43.210;27.914;2023-04-21T14:15:51;10.63;;;3.78;;
63203;SDS011;49297;43.210;27.914;2023-04-21T14:18:17;11.32;;;4.22;;
63203;SDS011;49297;43.210;27.914;2023-04-21T14:20:43;17.95;;;4.97;;
63203;SDS011;49297;43.210;27.914;2023-04-21T14:23:10;11.02;;;3.80;;
63203;SDS011;49297;43.210;27.914;2023-04-21T14:25:36;12.27;;;4.37;;
63203;SDS011;49297;43.210;27.914;2023-04-21T14:28:02;8.40;;;4.00;;
63203;SDS011;49297;43.210;27.914;2023-04-21T14:30:31;10.43;;;4.13;;
63203;SDS011;49297;43.210;27.914;2023-04-21T14:32:59;9.10;;;4.50;;
63203;SDS011;49297;43.210;27.914;2023-04-21T14:35:25;15.57;;;4.47;;
63203;SDS011;49297;43.210;27.914;2023-04-21T14:37:51;9.65;;;4.15;;
63203;SDS011;49297;43.210;27.914;2023-04-21T14:40:16;15.93;;;9.43;;
63203;SDS011;49297;43.210;27.914;2023-04-21T14:42:42;10.40;;;4.00;;
63203;SDS011;49297;43.210;27.914;2023-04-21T14:45:08;16.13;;;4.23;;
63203;SDS011;49297;43.210;27.914;2023-04-21T14:47:35;12.07;;;3.83;;
63203;SDS011;49297;43.210;27.914;2023-04-21T14:50:01;12.20;;;5.18;;
63203;SDS011;49297;43.210;27.914;2023-04-21T14:52:28;11.57;;;5.10;;